sensor_id;sensor_type;location;lat;lon;timestamp;pressure;altitude;pressure_sealevel;temperature;humidity
10852;BME280;5479;52.046;6.314;2023-06-22T00:00:27;101814.38;;;19.90;100.00
10852;BME280;5479;52.046;6.314;2023-06-22T00:02:55;101813.31;;;19.81;100.00
10852;BME280;5479;52.046;6.314;2023-06-22T00:05:22;101815.13;;;19.81;100.00
10852;BME280;5479;52.046;6.314;2023-06-22T00:07:50;101815.63;;;19.75;100.00
10852;BME280;5479;52.046;6.314;2023-06-22T00:10:18;101808.41;;;19.75;100.00
10852;BME280;5479;52.046;6.314;2023-06-22T00:12:47;101801.84;;;19.79;100.00
10852;BME280;5479;52.046;6.314;2023-06-22T00:15:15;101801.38;;;19.63;100.00
10852;BME280;5479;52.046;6.314;2023-06-22T00:17:45;101794.75;;;19.67;100.00
10852;BME280;5479;52.046;6.314;2023-06-22T00:20:13;101804.16;;;19.62;100.00
10852;BME280;5479;52.046;6.314;2023-06-22T00:22:42;101785.50;;;19.60;100.00
10852;BME280;5479;52.046;6.314;2023-06-22T00:25:11;101788.53;;;19.56;100.00
10852;BME280;5479;52.046;6.314;2023-06-22T00:27:39;101796.25;;;19.60;100.00
10852;BME280;5479;52.046;6.314;2023-06-22T00:30:08;101790.25;;;19.57;100.00
10852;BME280;5479;52.046;6.314;2023-06-22T00:32:36;101789.88;;;19.61;100.00
10852;BME280;5479;52.046;6.314;2023-06-22T00:35:06;101789.53;;;19.66;100.00
10852;BME280;5479;52.046;6.314;2023-06-22T00:37:35;101773.00;;;19.70;100.00
10852;BME280;5479;52.046;6.314;2023-06-22T00:40:03;101774.84;;;19.70;100.00
10852;BME280;5479;52.046;6.314;2023-06-22T00:42:31;101775.00;;;19.57;100.00
10852;BME280;5479;52.046;6.314;2023-06-22T00:44:59;101780.22;;;19.59;100.00
10852;BME280;5479;52.046;6.314;2023-06-22T00:47:27;101779.50;;;19.57;100.00
10852;BME280;5479;52.046;6.314;2023-06-22T00:49:55;101784.16;;;19.66;100.00
10852;BME280;5479;52.046;6.314;2023-06-22T00:52:27;101785.25;;;19.52;100.00
10852;BME280;5479;52.046;6.314;2023-06-22T00:54:57;101786.84;;;19.55;100.00
10852;BME280;5479;52.046;6.314;2023-06-22T00:57:28;101787.59;;;19.46;100.00
10852;BME280;5479;52.046;6.314;2023-06-22T00:59:56;101783.19;;;19.34;100.00
10852;BME280;5479;52.046;6.314;2023-06-22T01:02:24;101777.31;;;19.28;100.00
10852;BME280;5479;52.046;6.314;2023-06-22T01:04:52;101780.50;;;19.22;100.00
10852;BME280;5479;52.046;6.314;2023-06-22T01:07:27;101782.69;;;19.17;100.00
10852;BME280;5479;52.046;6.314;2023-06-22T01:10:03;101782.44;;;19.09;100.00
10852;BME280;5479;52.046;6.314;2023-06-22T01:12:37;101780.63;;;19.10;100.00
10852;BME280;5479;52.046;6.314;2023-06-22T01:15:10;101780.00;;;19.06;100.00
10852;BME280;5479;52.046;6.314;2023-06-22T01:17:40;101778.78;;;18.99;100.00
10852;BME280;5479;52.046;6.314;2023-06-22T01:20:12;101780.22;;;18.92;100.00
10852;BME280;5479;52.046;6.314;2023-06-22T01:22:52;101777.44;;;18.94;100.00
10852;BME280;5479;52.046;6.314;2023-06-22T01:25:33;101775.97;;;18.90;100.00
10852;BME280;5479;52.046;6.314;2023-06-22T01:28:13;101775.94;;;18.79;100.00
10852;BME280;5479;52.046;6.314;2023-06-22T01:30:49;101771.44;;;18.79;100.00
10852;BME280;5479;52.046;6.314;2023-06-22T01:33:27;101775.94;;;18.79;100.00
10852;BME280;5479;52.046;6.314;2023-06-22T01:35:55;101765.84;;;18.82;100.00
10852;BME280;5479;52.046;6.314;2023-06-22T01:38:24;101765.34;;;18.77;100.00
10852;BME280;5479;52.046;6.314;2023-06-22T01:40:53;101762.78;;;18.87;100.00
10852;BME280;5479;52.046;6.314;2023-06-22T01:43:22;101773.41;;;18.77;100.00
10852;BME280;5479;52.046;6.314;2023-06-22T01:45:53;101765.59;;;18.85;100.00
10852;BME280;5479;52.046;6.314;2023-06-22T01:48:22;101759.38;;;18.85;100.00
10852;BME280;5479;52.046;6.314;2023-06-22T01:50:50;101767.53;;;18.72;100.00
10852;BME280;5479;52.046;6.314;2023-06-22T01:53:20;101762.50;;;18.67;100.00
10852;BME280;5479;52.046;6.314;2023-06-22T01:55:48;101763.84;;;18.73;100.00
10852;BME280;5479;52.046;6.314;2023-06-22T01:58:16;101754.38;;;18.80;100.00
10852;BME280;5479;52.046;6.314;2023-06-22T02:00:48;101761.31;;;18.83;100.00
10852;BME280;5479;52.046;6.314;2023-06-22T02:03:24;101769.97;;;18.86;100.00
10852;BME280;5479;52.046;6.314;2023-06-22T02:05:58;101770.81;;;18.76;100.00
10852;BME280;5479;52.046;6.314;2023-06-22T02:08:31;101769.72;;;18.67;100.00
10852;BME280;5479;52.046;6.314;2023-06-22T02:11:00;101755.69;;;18.63;100.00
10852;BME280;5479;52.046;6.314;2023-06-22T02:13:30;101759.69;;;18.58;100.00
10852;BME280;5479;52.046;6.314;2023-06-22T02:16:00;101758.75;;;18.59;100.00
10852;BME280;5479;52.046;6.314;2023-06-22T02:18:30;101758.75;;;18.59;100.00
10852;BME280;5479;52.046;6.314;2023-06-22T02:20:58;101755.06;;;18.60;100.00
10852;BME280;5479;52.046;6.314;2023-06-22T02:23:27;101755.06;;;18.60;100.00
10852;BME280;5479;52.046;6.314;2023-06-22T02:25:55;101761.66;;;18.56;100.00
10852;BME280;5479;52.046;6.314;2023-06-22T02:28:23;101758.47;;;18.51;100.00
10852;BME280;5479;52.046;6.314;2023-06-22T02:30:51;101757.09;;;18.45;100.00
10852;BME280;5479;52.046;6.314;2023-06-22T02:33:19;101750.84;;;18.45;100.00
10852;BME280;5479;52.046;6.314;2023-06-22T02:35:48;101755.78;;;18.51;100.00
10852;BME280;5479;52.046;6.314;2023-06-22T02:38:17;101751.66;;;18.58;100.00
10852;BME280;5479;52.046;6.314;2023-06-22T02:40:46;101746.59;;;18.42;100.00
10852;BME280;5479;52.046;6.314;2023-06-22T02:43:14;101752.53;;;18.46;100.00
10852;BME280;5479;52.046;6.314;2023-06-22T02:45:42;101751.09;;;18.42;100.00
10852;BME280;5479;52.046;6.314;2023-06-22T02:48:10;101746.94;;;18.38;100.00
10852;BME280;5479;52.046;6.314;2023-06-22T02:50:38;101745.97;;;18.39;100.00
10852;BME280;5479;52.046;6.314;2023-06-22T02:53:09;101744.97;;;18.29;100.00
10852;BME280;5479;52.046;6.314;2023-06-22T02:55:37;101741.81;;;18.35;100.00
10852;BME280;5479;52.046;6.314;2023-06-22T02:58:06;101743.41;;;18.37;100.00
10852;BME280;5479;52.046;6.314;2023-06-22T03:00:35;101739.59;;;18.29;100.00
10852;BME280;5479;52.046;6.314;2023-06-22T03:03:03;101747.84;;;18.15;100.00
10852;BME280;5479;52.046;6.314;2023-06-22T03:05:31;101745.19;;;18.26;100.00
10852;BME280;5479;52.046;6.314;2023-06-22T03:07:59;101748.88;;;18.36;100.00
10852;BME280;5479;52.046;6.314;2023-06-22T03:10:29;101752.19;;;18.39;100.00
10852;BME280;5479;52.046;6.314;2023-06-22T03:12:57;101739.97;;;18.35;100.00
10852;BME280;5479;52.046;6.314;2023-06-22T03:15:25;101741.31;;;18.30;100.00
10852;BME280;5479;52.046;6.314;2023-06-22T03:17:55;101739.38;;;18.32;100.00
10852;BME280;5479;52.046;6.314;2023-06-22T03:20:24;101739.44;;;18.19;100.00
10852;BME280;5479;52.046;6.314;2023-06-22T03:22:53;101742.25;;;18.18;100.00
10852;BME280;5479;52.046;6.314;2023-06-22T03:25:21;101741.84;;;18.11;100.00
10852;BME280;5479;52.046;6.314;2023-06-22T03:27:49;101731.44;;;18.30;100.00
10852;BME280;5479;52.046;6.314;2023-06-22T03:30:17;101731.28;;;18.21;100.00
10852;BME280;5479;52.046;6.314;2023-06-22T03:32:45;101731.47;;;18.06;100.00
10852;BME280;5479;52.046;6.314;2023-06-22T03:35:14;101732.25;;;18.20;100.00
10852;BME280;5479;52.046;6.314;2023-06-22T03:37:42;101734.56;;;18.13;100.00
10852;BME280;5479;52.046;6.314;2023-06-22T03:40:11;101737.97;;;18.15;100.00
10852;BME280;5479;52.046;6.314;2023-06-22T03:42:39;101728.72;;;18.19;100.00
10852;BME280;5479;52.046;6.314;2023-06-22T03:45:10;101730.81;;;18.27;100.00
10852;BME280;5479;52.046;6.314;2023-06-22T03:47:38;101725.34;;;18.28;100.00
10852;BME280;5479;52.046;6.314;2023-06-22T03:50:07;101727.03;;;18.18;100.00
10852;BME280;5479;52.046;6.314;2023-06-22T03:52:35;101721.88;;;18.15;100.00
10852;BME280;5479;52.046;6.314;2023-06-22T03:55:03;101718.81;;;18.08;100.00
10852;BME280;5479;52.046;6.314;2023-06-22T03:57:32;101718.69;;;18.10;100.00
10852;BME280;5479;52.046;6.314;2023-06-22T04:00:00;101716.63;;;18.02;100.00
10852;BME280;5479;52.046;6.314;2023-06-22T04:02:30;101715.28;;;18.08;100.00
10852;BME280;5479;52.046;6.314;2023-06-22T04:04:58;101720.88;;;18.05;100.00
10852;BME280;5479;52.046;6.314;2023-06-22T04:07:26;101725.66;;;18.13;100.00
10852;BME280;5479;52.046;6.314;2023-06-22T04:09:55;101719.66;;;18.09;100.00
10852;BME280;5479;52.046;6.314;2023-06-22T04:12:23;101719.06;;;18.05;100.00
10852;BME280;5479;52.046;6.314;2023-06-22T04:14:51;101712.25;;;18.13;100.00
10852;BME280;5479;52.046;6.314;2023-06-22T04:17:19;101719.88;;;18.06;100.00
10852;BME280;5479;52.046;6.314;2023-06-22T04:19:48;101715.38;;;18.06;100.00
10852;BME280;5479;52.046;6.314;2023-06-22T04:22:16;101706.75;;;18.03;100.00
10852;BME280;5479;52.046;6.314;2023-06-22T04:24:44;101715.56;;;17.92;100.00
10852;BME280;5479;52.046;6.314;2023-06-22T04:27:13;101713.94;;;18.02;100.00
10852;BME280;5479;52.046;6.314;2023-06-22T04:29:41;101712.25;;;18.13;100.00
10852;BME280;5479;52.046;6.314;2023-06-22T04:32:15;101712.47;;;18.09;100.00
10852;BME280;5479;52.046;6.314;2023-06-22T04:34:43;101718.31;;;18.03;100.00
10852;BME280;5479;52.046;6.314;2023-06-22T04:37:12;101717.72;;;18.11;100.00
10852;BME280;5479;52.046;6.314;2023-06-22T04:39:42;101718.88;;;18.31;100.00
10852;BME280;5479;52.046;6.314;2023-06-22T04:42:11;101721.22;;;18.46;100.00
10852;BME280;5479;52.046;6.314;2023-06-22T04:44:39;101723.19;;;18.44;100.00
10852;BME280;5479;52.046;6.314;2023-06-22T04:47:08;101713.13;;;18.70;100.00
10852;BME280;5479;52.046;6.314;2023-06-22T04:49:36;101717.03;;;18.77;100.00
10852;BME280;5479;52.046;6.314;2023-06-22T04:52:08;101713.13;;;18.92;100.00
10852;BME280;5479;52.046;6.314;2023-06-22T04:54:39;101715.56;;;18.95;100.00
10852;BME280;5479;52.046;6.314;2023-06-22T04:57:14;101709.25;;;18.96;100.00
10852;BME280;5479;52.046;6.314;2023-06-22T04:59:42;101712.88;;;18.95;100.00
10852;BME280;5479;52.046;6.314;2023-06-22T05:02:12;101707.28;;;19.09;100.00
10852;BME280;5479;52.046;6.314;2023-06-22T05:04:40;101703.97;;;19.17;100.00
10852;BME280;5479;52.046;6.314;2023-06-22T05:07:07;101705.31;;;19.22;100.00
10852;BME280;5479;52.046;6.314;2023-06-22T05:09:37;101703.09;;;19.27;100.00
10852;BME280;5479;52.046;6.314;2023-06-22T05:12:07;101702.84;;;19.31;100.00
10852;BME280;5479;52.046;6.314;2023-06-22T05:14:35;101711.63;;;19.33;100.00
10852;BME280;5479;52.046;6.314;2023-06-22T05:17:04;101711.63;;;19.55;100.00
10852;BME280;5479;52.046;6.314;2023-06-22T05:19:41;101710.38;;;19.59;100.00
10852;BME280;5479;52.046;6.314;2023-06-22T05:22:14;101714.09;;;19.78;100.00
10852;BME280;5479;52.046;6.314;2023-06-22T05:24:44;101711.59;;;19.98;100.00
10852;BME280;5479;52.046;6.314;2023-06-22T05:27:12;101707.06;;;19.98;100.00
10852;BME280;5479;52.046;6.314;2023-06-22T05:29:40;101708.94;;;19.86;100.00
10852;BME280;5479;52.046;6.314;2023-06-22T05:32:09;101700.63;;;19.90;100.00
10852;BME280;5479;52.046;6.314;2023-06-22T05:34:37;101706.78;;;20.01;100.00
10852;BME280;5479;52.046;6.314;2023-06-22T05:37:05;101704.94;;;20.02;100.00
10852;BME280;5479;52.046;6.314;2023-06-22T05:39:36;101705.75;;;20.13;100.00
10852;BME280;5479;52.046;6.314;2023-06-22T05:42:07;101719.19;;;20.13;100.00
10852;BME280;5479;52.046;6.314;2023-06-22T05:44:35;101714.00;;;20.32;100.00
10852;BME280;5479;52.046;6.314;2023-06-22T05:47:04;101709.06;;;20.37;100.00
10852;BME280;5479;52.046;6.314;2023-06-22T05:49:32;101708.41;;;20.45;100.00
10852;BME280;5479;52.046;6.314;2023-06-22T05:52:00;101718.69;;;20.61;100.00
10852;BME280;5479;52.046;6.314;2023-06-22T05:54:28;101718.94;;;20.78;100.00
10852;BME280;5479;52.046;6.314;2023-06-22T05:56:56;101726.53;;;20.94;100.00
10852;BME280;5479;52.046;6.314;2023-06-22T05:59:25;101729.41;;;21.02;100.00
10852;BME280;5479;52.046;6.314;2023-06-22T06:01:53;101725.13;;;20.99;100.00
10852;BME280;5479;52.046;6.314;2023-06-22T06:04:21;101724.56;;;21.05;100.00
10852;BME280;5479;52.046;6.314;2023-06-22T06:06:49;101720.78;;;21.08;100.00
10852;BME280;5479;52.046;6.314;2023-06-22T06:09:18;101718.09;;;21.08;100.00
10852;BME280;5479;52.046;6.314;2023-06-22T06:11:46;101717.28;;;21.17;100.00
10852;BME280;5479;52.046;6.314;2023-06-22T06:14:14;101715.72;;;21.24;100.00
10852;BME280;5479;52.046;6.314;2023-06-22T06:16:45;101721.00;;;21.35;100.00
10852;BME280;5479;52.046;6.314;2023-06-22T06:19:13;101724.66;;;21.15;100.00
10852;BME280;5479;52.046;6.314;2023-06-22T06:21:41;101725.81;;;21.22;100.00
10852;BME280;5479;52.046;6.314;2023-06-22T06:24:08;101714.31;;;21.20;100.00
10852;BME280;5479;52.046;6.314;2023-06-22T06:26:36;101716.53;;;21.45;100.00
10852;BME280;5479;52.046;6.314;2023-06-22T06:29:05;101715.94;;;21.51;100.00
10852;BME280;5479;52.046;6.314;2023-06-22T06:31:33;101710.34;;;21.93;100.00
10852;BME280;5479;52.046;6.314;2023-06-22T06:34:03;101717.22;;;22.62;100.00
10852;BME280;5479;52.046;6.314;2023-06-22T06:36:32;101707.22;;;23.46;100.00
10852;BME280;5479;52.046;6.314;2023-06-22T06:39:00;101711.88;;;24.24;100.00
10852;BME280;5479;52.046;6.314;2023-06-22T06:41:29;101698.31;;;24.42;100.00
10852;BME280;5479;52.046;6.314;2023-06-22T06:43:57;101705.69;;;24.57;100.00
10852;BME280;5479;52.046;6.314;2023-06-22T06:46:27;101699.88;;;25.46;100.00
10852;BME280;5479;52.046;6.314;2023-06-22T06:48:55;101704.19;;;25.81;100.00
10852;BME280;5479;52.046;6.314;2023-06-22T06:51:24;101693.19;;;26.06;100.00
10852;BME280;5479;52.046;6.314;2023-06-22T06:53:52;101688.78;;;26.38;99.30
10852;BME280;5479;52.046;6.314;2023-06-22T06:56:20;101687.72;;;26.55;96.07
10852;BME280;5479;52.046;6.314;2023-06-22T06:58:50;101687.72;;;26.55;94.92
10852;BME280;5479;52.046;6.314;2023-06-22T07:01:18;101688.78;;;25.89;98.06
10852;BME280;5479;52.046;6.314;2023-06-22T07:03:46;101684.69;;;25.19;100.00
10852;BME280;5479;52.046;6.314;2023-06-22T07:06:14;101689.09;;;24.35;100.00
10852;BME280;5479;52.046;6.314;2023-06-22T07:08:44;101686.50;;;24.51;100.00
10852;BME280;5479;52.046;6.314;2023-06-22T07:11:12;101687.56;;;24.32;100.00
10852;BME280;5479;52.046;6.314;2023-06-22T07:13:40;101680.31;;;24.84;100.00
10852;BME280;5479;52.046;6.314;2023-06-22T07:16:08;101680.19;;;24.68;100.00
10852;BME280;5479;52.046;6.314;2023-06-22T07:18:36;101671.00;;;24.10;100.00
10852;BME280;5479;52.046;6.314;2023-06-22T07:21:04;101671.47;;;23.87;100.00
10852;BME280;5479;52.046;6.314;2023-06-22T07:23:34;101682.47;;;23.41;100.00
10852;BME280;5479;52.046;6.314;2023-06-22T07:26:04;101676.66;;;23.81;100.00
10852;BME280;5479;52.046;6.314;2023-06-22T07:28:33;101679.66;;;23.95;100.00
10852;BME280;5479;52.046;6.314;2023-06-22T07:31:03;101674.09;;;23.79;100.00
10852;BME280;5479;52.046;6.314;2023-06-22T07:33:31;101675.41;;;23.58;100.00
10852;BME280;5479;52.046;6.314;2023-06-22T07:35:59;101672.56;;;23.59;100.00
10852;BME280;5479;52.046;6.314;2023-06-22T07:38:27;101668.53;;;23.63;100.00
10852;BME280;5479;52.046;6.314;2023-06-22T07:40:55;101659.44;;;24.25;100.00
10852;BME280;5479;52.046;6.314;2023-06-22T07:43:25;101656.81;;;24.33;100.00
10852;BME280;5479;52.046;6.314;2023-06-22T07:45:53;101648.06;;;24.39;100.00
10852;BME280;5479;52.046;6.314;2023-06-22T07:48:21;101652.13;;;24.69;100.00
10852;BME280;5479;52.046;6.314;2023-06-22T07:50:49;101648.88;;;24.99;100.00
10852;BME280;5479;52.046;6.314;2023-06-22T07:53:19;101655.00;;;25.51;100.00
10852;BME280;5479;52.046;6.314;2023-06-22T07:55:48;101652.63;;;25.56;100.00
10852;BME280;5479;52.046;6.314;2023-06-22T07:58:16;101651.69;;;25.40;100.00
10852;BME280;5479;52.046;6.314;2023-06-22T08:00:48;101652.47;;;25.74;100.00
10852;BME280;5479;52.046;6.314;2023-06-22T08:03:17;101646.38;;;25.88;100.00
10852;BME280;5479;52.046;6.314;2023-06-22T08:05:45;101646.69;;;25.69;100.00
10852;BME280;5479;52.046;6.314;2023-06-22T08:08:15;101643.31;;;25.67;100.00
10852;BME280;5479;52.046;6.314;2023-06-22T08:10:43;101654.56;;;25.22;100.00
10852;BME280;5479;52.046;6.314;2023-06-22T08:13:11;101654.34;;;25.15;100.00
10852;BME280;5479;52.046;6.314;2023-06-22T08:15:39;101644.31;;;25.00;100.00
10852;BME280;5479;52.046;6.314;2023-06-22T08:18:09;101642.56;;;25.41;100.00
10852;BME280;5479;52.046;6.314;2023-06-22T08:20:37;101641.44;;;26.08;100.00
10852;BME280;5479;52.046;6.314;2023-06-22T08:23:05;101635.06;;;26.72;96.83
10852;BME280;5479;52.046;6.314;2023-06-22T08:25:33;101643.84;;;27.21;94.27
10852;BME280;5479;52.046;6.314;2023-06-22T08:28:01;101635.28;;;27.01;93.42
10852;BME280;5479;52.046;6.314;2023-06-22T08:30:29;101621.31;;;27.35;89.30
10852;BME280;5479;52.046;6.314;2023-06-22T08:32:57;101618.59;;;27.66;87.59
10852;BME280;5479;52.046;6.314;2023-06-22T08:35:27;101608.94;;;28.00;82.37
10852;BME280;5479;52.046;6.314;2023-06-22T08:37:55;101597.53;;;28.34;78.12
10852;BME280;5479;52.046;6.314;2023-06-22T08:40:24;101589.47;;;27.89;79.64
10852;BME280;5479;52.046;6.314;2023-06-22T08:42:53;101593.91;;;27.67;86.39
10852;BME280;5479;52.046;6.314;2023-06-22T08:45:21;101596.31;;;28.22;80.49
10852;BME280;5479;52.046;6.314;2023-06-22T08:47:49;101596.31;;;27.85;79.07
10852;BME280;5479;52.046;6.314;2023-06-22T08:50:17;101587.16;;;28.00;77.75
10852;BME280;5479;52.046;6.314;2023-06-22T08:52:48;101590.19;;;28.20;75.28
10852;BME280;5479;52.046;6.314;2023-06-22T08:55:16;101578.94;;;28.23;75.94
10852;BME280;5479;52.046;6.314;2023-06-22T08:57:44;101583.47;;;28.45;74.84
10852;BME280;5479;52.046;6.314;2023-06-22T09:00:13;101590.03;;;28.51;76.60
10852;BME280;5479;52.046;6.314;2023-06-22T09:02:46;101590.38;;;28.33;74.45
10852;BME280;5479;52.046;6.314;2023-06-22T09:05:15;101584.81;;;27.75;79.63
10852;BME280;5479;52.046;6.314;2023-06-22T09:07:43;101580.09;;;27.91;77.15
10852;BME280;5479;52.046;6.314;2023-06-22T09:10:14;101582.31;;;28.25;75.50
10852;BME280;5479;52.046;6.314;2023-06-22T09:12:42;101580.63;;;28.53;72.57
10852;BME280;5479;52.046;6.314;2023-06-22T09:15:10;101581.97;;;28.43;69.67
10852;BME280;5479;52.046;6.314;2023-06-22T09:17:38;101581.66;;;28.23;71.50
10852;BME280;5479;52.046;6.314;2023-06-22T09:20:08;101572.56;;;28.16;69.67
10852;BME280;5479;52.046;6.314;2023-06-22T09:22:37;101571.34;;;27.96;73.42
10852;BME280;5479;52.046;6.314;2023-06-22T09:25:06;101567.88;;;27.87;74.73
10852;BME280;5479;52.046;6.314;2023-06-22T09:27:35;101561.47;;;28.03;71.05
10852;BME280;5479;52.046;6.314;2023-06-22T09:30:04;101557.53;;;27.68;71.99
10852;BME280;5479;52.046;6.314;2023-06-22T09:32:33;101573.13;;;27.51;72.59
10852;BME280;5479;52.046;6.314;2023-06-22T09:35:04;101570.31;;;26.83;77.83
10852;BME280;5479;52.046;6.314;2023-06-22T09:37:33;101573.91;;;26.29;87.83
10852;BME280;5479;52.046;6.314;2023-06-22T09:40:01;101567.97;;;26.80;85.25
10852;BME280;5479;52.046;6.314;2023-06-22T09:42:35;101572.00;;;26.84;82.85
10852;BME280;5479;52.046;6.314;2023-06-22T09:45:03;101564.66;;;26.46;85.73
10852;BME280;5479;52.046;6.314;2023-06-22T09:47:31;101563.50;;;26.41;88.78
10852;BME280;5479;52.046;6.314;2023-06-22T09:49:59;101563.06;;;26.68;86.83
10852;BME280;5479;52.046;6.314;2023-06-22T09:52:27;101560.28;;;26.76;85.64
10852;BME280;5479;52.046;6.314;2023-06-22T09:54:55;101552.50;;;26.34;87.15
10852;BME280;5479;52.046;6.314;2023-06-22T09:57:23;101556.34;;;26.48;86.37
10852;BME280;5479;52.046;6.314;2023-06-22T09:59:52;101549.03;;;26.56;89.25
10852;BME280;5479;52.046;6.314;2023-06-22T10:02:20;101551.53;;;26.66;85.40
10852;BME280;5479;52.046;6.314;2023-06-22T10:04:49;101553.22;;;26.67;87.54
10852;BME280;5479;52.046;6.314;2023-06-22T10:07:17;101563.84;;;26.46;87.43
10852;BME280;5479;52.046;6.314;2023-06-22T10:09:46;101561.13;;;26.46;90.16
10852;BME280;5479;52.046;6.314;2023-06-22T10:12:14;101558.41;;;26.46;90.17
10852;BME280;5479;52.046;6.314;2023-06-22T10:14:43;101565.63;;;26.14;89.06
10852;BME280;5479;52.046;6.314;2023-06-22T10:17:12;101569.41;;;25.73;93.87
10852;BME280;5479;52.046;6.314;2023-06-22T10:19:40;101555.97;;;25.79;89.97
10852;BME280;5479;52.046;6.314;2023-06-22T10:22:09;101550.22;;;25.74;88.97
10852;BME280;5479;52.046;6.314;2023-06-22T10:24:37;101560.56;;;25.63;91.65
10852;BME280;5479;52.046;6.314;2023-06-22T10:27:11;101551.94;;;25.67;90.27
10852;BME280;5479;52.046;6.314;2023-06-22T10:29:41;101548.72;;;25.56;93.97
10852;BME280;5479;52.046;6.314;2023-06-22T10:32:13;101542.56;;;25.38;97.32
10852;BME280;5479;52.046;6.314;2023-06-22T10:34:41;101545.78;;;25.17;97.41
10852;BME280;5479;52.046;6.314;2023-06-22T10:37:09;101543.88;;;25.17;100.00
10852;BME280;5479;52.046;6.314;2023-06-22T10:39:37;101546.63;;;25.42;100.00
10852;BME280;5479;52.046;6.314;2023-06-22T10:42:07;101545.84;;;25.57;99.68
10852;BME280;5479;52.046;6.314;2023-06-22T10:44:35;101539.88;;;25.70;97.48
10852;BME280;5479;52.046;6.314;2023-06-22T10:47:03;101543.78;;;25.75;96.69
10852;BME280;5479;52.046;6.314;2023-06-22T10:49:33;101546.00;;;25.64;97.63
10852;BME280;5479;52.046;6.314;2023-06-22T10:52:00;101545.97;;;25.80;98.41
10852;BME280;5479;52.046;6.314;2023-06-22T10:54:28;101551.06;;;25.75;97.84
10852;BME280;5479;52.046;6.314;2023-06-22T10:56:57;101538.69;;;25.72;98.98
10852;BME280;5479;52.046;6.314;2023-06-22T10:59:25;101537.50;;;25.75;99.85
10852;BME280;5479;52.046;6.314;2023-06-22T11:01:53;101533.09;;;25.66;100.00
10852;BME280;5479;52.046;6.314;2023-06-22T11:04:21;101529.72;;;25.48;100.00
10852;BME280;5479;52.046;6.314;2023-06-22T11:06:51;101527.69;;;25.50;99.96
10852;BME280;5479;52.046;6.314;2023-06-22T11:09:19;101522.09;;;25.59;98.69
10852;BME280;5479;52.046;6.314;2023-06-22T11:11:50;101514.44;;;25.55;98.66
10852;BME280;5479;52.046;6.314;2023-06-22T11:14:20;101508.88;;;25.56;98.91
10852;BME280;5479;52.046;6.314;2023-06-22T11:16:48;101506.31;;;25.55;99.33
10852;BME280;5479;52.046;6.314;2023-06-22T11:19:16;101500.56;;;25.50;98.83
10852;BME280;5479;52.046;6.314;2023-06-22T11:21:44;101500.91;;;25.31;100.00
10852;BME280;5479;52.046;6.314;2023-06-22T11:24:14;101504.38;;;24.91;100.00
10852;BME280;5479;52.046;6.314;2023-06-22T11:26:42;101490.63;;;24.76;100.00
10852;BME280;5479;52.046;6.314;2023-06-22T11:29:10;101498.16;;;24.90;100.00
10852;BME280;5479;52.046;6.314;2023-06-22T11:31:38;101503.50;;;24.74;100.00
10852;BME280;5479;52.046;6.314;2023-06-22T11:34:09;101496.13;;;24.92;100.00
10852;BME280;5479;52.046;6.314;2023-06-22T11:36:37;101496.13;;;24.92;100.00
10852;BME280;5479;52.046;6.314;2023-06-22T11:39:05;101495.78;;;24.87;100.00
10852;BME280;5479;52.046;6.314;2023-06-22T11:41:35;101487.25;;;24.74;100.00
10852;BME280;5479;52.046;6.314;2023-06-22T11:44:03;101485.22;;;24.76;100.00
10852;BME280;5479;52.046;6.314;2023-06-22T11:46:32;101482.47;;;24.68;100.00
10852;BME280;5479;52.046;6.314;2023-06-22T11:49:01;101492.34;;;24.77;100.00
10852;BME280;5479;52.046;6.314;2023-06-22T11:51:30;101492.97;;;24.63;100.00
10852;BME280;5479;52.046;6.314;2023-06-22T11:53:59;101490.25;;;24.63;100.00
10852;BME280;5479;52.046;6.314;2023-06-22T11:56:26;101507.47;;;24.54;100.00
10852;BME280;5479;52.046;6.314;2023-06-22T11:58:58;101502.00;;;24.38;100.00
10852;BME280;5479;52.046;6.314;2023-06-22T12:01:26;101516.78;;;24.10;100.00
10852;BME280;5479;52.046;6.314;2023-06-22T12:03:54;101522.88;;;23.68;100.00
10852;BME280;5479;52.046;6.314;2023-06-22T12:06:22;101523.00;;;23.06;100.00
10852;BME280;5479;52.046;6.314;2023-06-22T12:08:50;101528.06;;;22.73;100.00
10852;BME280;5479;52.046;6.314;2023-06-22T12:11:19;101526.22;;;22.37;100.00
10852;BME280;5479;52.046;6.314;2023-06-22T12:13:47;101525.59;;;22.16;100.00
10852;BME280;5479;52.046;6.314;2023-06-22T12:16:16;101521.88;;;21.90;100.00
10852;BME280;5479;52.046;6.314;2023-06-22T12:18:45;101519.06;;;21.72;100.00
10852;BME280;5479;52.046;6.314;2023-06-22T12:21:13;101520.47;;;21.67;100.00
10852;BME280;5479;52.046;6.314;2023-06-22T12:23:40;101524.31;;;21.64;100.00
10852;BME280;5479;52.046;6.314;2023-06-22T12:26:08;101526.31;;;21.52;100.00
10852;BME280;5479;52.046;6.314;2023-06-22T12:28:36;101525.06;;;21.37;100.00
10852;BME280;5479;52.046;6.314;2023-06-22T12:31:04;101536.69;;;21.28;100.00
10852;BME280;5479;52.046;6.314;2023-06-22T12:33:34;101539.22;;;21.20;100.00
10852;BME280;5479;52.046;6.314;2023-06-22T12:36:03;101537.53;;;21.29;100.00
10852;BME280;5479;52.046;6.314;2023-06-22T12:38:31;101538.25;;;21.31;100.00
10852;BME280;5479;52.046;6.314;2023-06-22T12:40:59;101531.72;;;21.14;100.00
10852;BME280;5479;52.046;6.314;2023-06-22T12:43:27;101527.00;;;20.97;100.00
10852;BME280;5479;52.046;6.314;2023-06-22T12:45:56;101525.84;;;20.90;100.00
10852;BME280;5479;52.046;6.314;2023-06-22T12:48:25;101527.09;;;20.67;100.00
10852;BME280;5479;52.046;6.314;2023-06-22T12:50:56;101522.50;;;20.58;100.00
10852;BME280;5479;52.046;6.314;2023-06-22T12:53:25;101521.63;;;20.48;100.00
10852;BME280;5479;52.046;6.314;2023-06-22T12:55:55;101520.66;;;20.49;100.00
10852;BME280;5479;52.046;6.314;2023-06-22T12:58:25;101513.56;;;20.48;100.00
10852;BME280;5479;52.046;6.314;2023-06-22T13:00:53;101511.84;;;20.46;100.00